createdAt,value
2022-11-06T00:01:52.181Z,80.87
2022-11-06T00:06:51.504Z,80.99
2022-11-06T00:11:51.566Z,80.76
2022-11-06T00:16:51.570Z,81.08
2022-11-06T00:21:51.540Z,81.01
2022-11-06T00:26:54.352Z,81.31
2022-11-06T00:31:51.588Z,81.17
2022-11-06T00:36:51.619Z,81.14
2022-11-06T00:41:51.608Z,81.53
2022-11-06T00:46:51.657Z,80.90
2022-11-06T00:51:51.636Z,81.48
2022-11-06T00:56:51.893Z,81.28
2022-11-06T01:01:52.536Z,81.65
2022-11-06T01:06:53.620Z,81.46
2022-11-06T01:12:13.212Z,81.73
2022-11-06T01:16:51.896Z,81.76
2022-11-06T01:21:52.470Z,81.65
2022-11-06T01:27:12.182Z,81.97
2022-11-06T01:31:51.731Z,81.86
2022-11-06T01:36:52.003Z,81.65
2022-11-06T01:41:52.685Z,81.52
2022-11-06T01:46:51.769Z,81.45
2022-11-06T01:51:55.223Z,81.25
2022-11-06T01:56:55.474Z,81.36
2022-11-06T02:01:53.540Z,81.49
2022-11-06T02:06:52.312Z,81.51
2022-11-06T02:12:11.519Z,81.28
2022-11-06T02:16:59.061Z,81.39
2022-11-06T02:21:58.357Z,81.34
2022-11-06T02:27:01.816Z,81.30
2022-11-06T02:31:56.805Z,81.39
2022-11-06T02:37:00.160Z,81.01
2022-11-06T02:41:54.083Z,81.32
2022-11-06T02:46:56.185Z,81.12
2022-11-06T02:51:56.597Z,80.94
2022-11-06T02:56:56.559Z,81.31
2022-11-06T03:01:59.276Z,81.05
2022-11-06T03:07:00.653Z,81.15
2022-11-06T03:12:00.069Z,81.00
2022-11-06T03:16:56.595Z,81.27
2022-11-06T03:21:59.971Z,80.84
2022-11-06T03:26:53.301Z,80.93
2022-11-06T03:31:57.661Z,80.79
2022-11-06T03:37:01.578Z,80.62
2022-11-06T03:41:58.089Z,80.76
2022-11-06T03:46:56.823Z,80.67
2022-11-06T03:51:57.270Z,80.62
2022-11-06T03:56:56.287Z,80.72
2022-11-06T04:01:55.419Z,80.68
2022-11-06T04:06:57.017Z,80.58
2022-11-06T04:11:53.724Z,80.84
2022-11-06T04:16:56.663Z,80.84
2022-11-06T04:22:01.998Z,80.79
2022-11-06T04:26:55.344Z,80.75
2022-11-06T04:32:05.940Z,81.00
2022-11-06T04:37:12.058Z,80.85
2022-11-06T04:42:03.481Z,81.08
2022-11-06T04:46:57.138Z,80.84
2022-11-06T04:51:53.009Z,80.79
2022-11-06T04:56:57.234Z,80.95
2022-11-06T05:01:53.102Z,81.17
2022-11-06T05:06:52.193Z,81.08
2022-11-06T05:11:52.221Z,80.93
2022-11-06T05:16:52.241Z,81.11
2022-11-06T05:21:52.266Z,81.56
2022-11-06T05:26:57.832Z,81.66
2022-11-06T05:31:52.297Z,81.50
2022-11-06T05:36:52.264Z,81.77
2022-11-06T05:41:52.334Z,81.71
2022-11-06T05:46:52.322Z,81.67
2022-11-06T05:51:52.327Z,81.67
2022-11-06T05:56:52.321Z,81.73
2022-11-06T06:01:52.852Z,82.08
2022-11-06T06:06:52.391Z,81.87
2022-11-06T06:11:53.051Z,81.91
2022-11-06T06:16:52.352Z,82.35
2022-11-06T06:21:52.347Z,82.20
2022-11-06T06:26:52.377Z,81.99
2022-11-06T06:31:52.465Z,82.05
2022-11-06T06:36:52.960Z,81.74
2022-11-06T06:41:52.513Z,81.75
2022-11-06T06:46:52.523Z,81.57
2022-11-06T06:51:52.451Z,81.69
2022-11-06T06:56:52.486Z,81.62
2022-11-06T07:01:54.250Z,81.94
2022-11-06T07:06:52.892Z,81.58
2022-11-06T07:11:52.509Z,81.74
2022-11-06T07:16:53.890Z,81.36
2022-11-06T07:21:52.726Z,81.13
2022-11-06T07:26:52.504Z,81.14
2022-11-06T07:31:52.571Z,80.66
2022-11-06T07:36:52.527Z,80.46
2022-11-06T07:41:52.571Z,80.65
2022-11-06T07:46:52.550Z,80.38
2022-11-06T07:51:52.580Z,80.65
2022-11-06T07:56:52.589Z,80.45
2022-11-06T08:01:53.210Z,80.15
2022-11-06T08:06:52.584Z,80.00
2022-11-06T08:11:52.626Z,80.11
2022-11-06T08:16:52.613Z,80.13
2022-11-06T08:21:52.687Z,79.83
2022-11-06T08:26:52.662Z,79.46
2022-11-06T08:31:52.765Z,79.68
2022-11-06T08:36:52.662Z,79.62
2022-11-06T08:41:52.689Z,79.69
2022-11-06T08:46:52.672Z,77.80
2022-11-06T08:51:52.717Z,77.48
2022-11-06T08:56:52.711Z,77.60
2022-11-06T09:01:53.441Z,77.82
2022-11-06T09:06:52.904Z,75.61
2022-11-06T09:11:52.762Z,72.47
2022-11-06T09:16:52.987Z,71.27
2022-11-06T09:21:54.892Z,70.97
2022-11-06T09:26:52.763Z,71.61
2022-11-06T09:31:52.809Z,72.37
2022-11-06T09:36:52.795Z,73.23
2022-11-06T09:41:58.659Z,74.10
2022-11-06T09:51:59.430Z,74.26
2022-11-06T09:57:01.690Z,74.30
2022-11-06T10:01:58.636Z,74.09
2022-11-06T10:06:52.874Z,74.30
2022-11-06T10:12:11.409Z,74.94
2022-11-06T10:16:58.632Z,74.61
2022-11-06T10:22:10.216Z,74.91
2022-11-06T10:26:55.550Z,74.29
2022-11-06T10:32:06.164Z,74.88
2022-11-06T10:36:59.191Z,74.36
2022-11-06T10:42:00.706Z,74.26
2022-11-06T10:47:02.523Z,73.53
2022-11-06T10:52:12.885Z,72.76
2022-11-06T10:57:04.351Z,71.07
2022-11-06T11:01:54.085Z,71.61
2022-11-06T11:06:53.011Z,68.46
2022-11-06T11:11:53.114Z,67.30
2022-11-06T11:16:54.213Z,67.05
2022-11-06T11:21:55.403Z,67.58
2022-11-06T11:26:59.073Z,69.19
2022-11-06T11:31:56.920Z,67.87
2022-11-06T11:36:55.842Z,69.16
2022-11-06T11:41:53.239Z,68.45
2022-11-06T11:46:53.758Z,68.38
2022-11-06T11:51:54.067Z,68.88
2022-11-06T11:57:05.748Z,68.36
2022-11-06T12:01:56.376Z,68.96
2022-11-06T12:07:03.118Z,69.22
2022-11-06T12:11:55.939Z,68.47
2022-11-06T12:16:57.896Z,68.73
2022-11-06T12:21:57.801Z,69.38
2022-11-06T12:26:57.395Z,68.87
2022-11-06T12:31:59.674Z,68.16
2022-11-06T12:37:10.022Z,68.92
2022-11-06T12:41:54.886Z,68.28
2022-11-06T12:47:04.219Z,67.64
2022-11-06T12:52:00.003Z,67.02
2022-11-06T12:57:02.278Z,67.47
2022-11-06T13:02:10.361Z,68.33
2022-11-06T13:07:00.613Z,68.65
2022-11-06T13:12:06.371Z,68.64
2022-11-06T13:17:03.602Z,68.52
2022-11-06T13:22:04.256Z,69.04
2022-11-06T13:27:02.903Z,68.69
2022-11-06T13:31:58.494Z,69.73
2022-11-06T13:36:54.068Z,70.62
2022-11-06T13:41:54.691Z,71.66
2022-11-06T13:47:03.729Z,72.40
2022-11-06T13:51:56.754Z,71.98
2022-11-06T13:57:13.300Z,72.34
2022-11-06T14:02:03.967Z,73.35
2022-11-06T14:06:57.299Z,73.50
2022-11-06T14:11:56.172Z,75.05
2022-11-06T14:17:13.343Z,75.99
2022-11-06T14:22:04.003Z,76.84
2022-11-06T14:26:54.254Z,77.69
2022-11-06T14:32:06.687Z,78.49
2022-11-06T14:36:53.486Z,79.71
2022-11-06T14:41:54.420Z,79.82
2022-11-06T14:46:57.833Z,80.14
2022-11-06T14:52:06.201Z,79.67
2022-11-06T14:56:54.060Z,80.77
2022-11-06T15:01:59.577Z,80.88
2022-11-06T15:06:53.955Z,81.48
2022-11-06T15:11:54.963Z,81.70
2022-11-06T15:17:01.748Z,81.45
2022-11-06T15:22:02.007Z,83.33
2022-11-06T15:26:57.147Z,82.52
2022-11-06T15:32:01.329Z,82.02
2022-11-06T15:37:05.218Z,81.91
2022-11-06T15:41:54.313Z,82.32
2022-11-06T15:46:56.893Z,83.52
2022-11-06T15:56:53.753Z,82.95
2022-11-06T16:01:54.448Z,83.73
2022-11-06T16:06:55.961Z,83.45
2022-11-06T16:11:55.020Z,83.79
2022-11-06T16:16:55.854Z,83.46
2022-11-06T16:21:59.541Z,83.58
2022-11-06T16:26:54.023Z,83.90
2022-11-06T16:31:59.192Z,83.98
2022-11-06T16:36:59.545Z,84.71
2022-11-06T16:41:57.027Z,84.42
2022-11-06T16:47:03.745Z,83.69
2022-11-06T16:51:53.842Z,83.49
2022-11-06T16:56:54.660Z,83.85
2022-11-06T17:06:54.802Z,84.82
2022-11-06T17:11:56.338Z,85.29
2022-11-06T17:16:56.467Z,85.38
2022-11-06T17:21:53.984Z,85.52
2022-11-06T17:26:53.860Z,85.55
2022-11-06T17:31:53.875Z,86.26
2022-11-06T17:36:53.922Z,85.77
2022-11-06T17:41:53.885Z,86.25
2022-11-06T17:46:53.919Z,86.10
2022-11-06T17:51:53.939Z,85.43
2022-11-06T17:56:55.287Z,85.27
2022-11-06T18:01:55.690Z,84.64
2022-11-06T18:06:53.961Z,84.21
2022-11-06T18:11:54.852Z,84.22
2022-11-06T18:16:53.995Z,84.10
2022-11-06T18:21:54.747Z,84.31
2022-11-06T18:26:53.987Z,84.23
2022-11-06T18:31:54.025Z,83.46
2022-11-06T18:36:54.055Z,83.72
2022-11-06T18:41:56.377Z,83.56
2022-11-06T18:46:54.027Z,83.33
2022-11-06T18:51:54.055Z,83.49
2022-11-06T18:56:54.172Z,83.66
2022-11-06T19:01:54.802Z,83.68
2022-11-06T19:06:54.106Z,84.08
2022-11-06T19:11:54.157Z,83.82
2022-11-06T19:16:54.922Z,83.72
2022-11-06T19:21:54.124Z,84.29
2022-11-06T19:26:54.170Z,85.40
2022-11-06T19:31:54.147Z,85.70
2022-11-06T19:36:54.920Z,86.05
2022-11-06T19:41:54.145Z,86.04
2022-11-06T19:46:54.185Z,86.62
2022-11-06T19:51:54.188Z,86.75
2022-11-06T19:57:28.340Z,86.53
2022-11-06T20:01:54.776Z,86.46
2022-11-06T20:06:54.209Z,86.78
2022-11-06T20:11:54.298Z,86.36
2022-11-06T20:16:54.400Z,86.41
2022-11-06T20:21:54.248Z,86.26
2022-11-06T20:26:54.294Z,85.92
2022-11-06T20:31:54.259Z,85.83
2022-11-06T20:36:54.281Z,85.99
2022-11-06T20:41:54.340Z,85.93
2022-11-06T20:46:54.346Z,85.63
2022-11-06T20:52:13.342Z,85.75
2022-11-06T20:56:54.337Z,85.49
2022-11-06T21:01:55.771Z,85.44
2022-11-06T21:06:54.343Z,85.65
2022-11-06T21:11:54.368Z,85.16
2022-11-06T21:16:54.505Z,85.41
2022-11-06T21:21:54.695Z,85.64
2022-11-06T21:26:54.433Z,85.58
2022-11-06T21:31:54.414Z,85.21
2022-11-06T21:36:59.638Z,85.25
2022-11-06T21:41:54.437Z,85.11
2022-11-06T21:46:54.455Z,85.00
2022-11-06T21:51:54.439Z,85.04
2022-11-06T21:56:54.615Z,84.85
2022-11-06T22:01:56.036Z,84.62
2022-11-06T22:06:54.464Z,84.42
2022-11-06T22:11:54.538Z,84.54
2022-11-06T22:16:54.516Z,84.47
2022-11-06T22:21:54.518Z,84.25
2022-11-06T22:26:54.532Z,84.27
2022-11-06T22:31:54.638Z,84.40
2022-11-06T22:36:54.542Z,84.31
2022-11-06T22:41:54.599Z,84.31
2022-11-06T22:46:54.564Z,84.13
2022-11-06T22:51:54.603Z,84.36
2022-11-06T22:56:54.604Z,84.48
2022-11-06T23:01:56.347Z,84.21
2022-11-06T23:06:54.626Z,84.23
2022-11-06T23:11:54.651Z,84.48
2022-11-06T23:16:54.866Z,84.43
2022-11-06T23:21:54.937Z,84.29
2022-11-06T23:26:54.656Z,84.07
2022-11-06T23:31:54.695Z,84.41
2022-11-06T23:36:54.694Z,84.26
2022-11-06T23:41:54.734Z,83.99
2022-11-06T23:46:54.818Z,84.18
2022-11-06T23:51:54.724Z,84.16
2022-11-06T23:56:54.880Z,84.37
